Time;durP1;ratioP1;P1;durP2;ratioP2;P2;SDS_P1;SDS_P2;PMS_P1;PMS_P2;Temp;Humidity;BMP_temperature;BMP_pressure;BME280_temperature;BME280_humidity;BME280_pressure;Samples;Min_cycle;Max_cycle;Signal;HPM_P1;HPM_P2
2022/09/15 03:02:28;;;;;;;0.70;0.60;;;19.10;88.10;;;;;;5162420;23;21028;-70
2022/09/15 03:04:55;;;;;;;0.90;0.67;;;19.00;88.00;;;;;;4936395;29;20460;-69
2022/09/15 03:07:21;;;;;;;0.70;0.60;;;18.90;87.90;;;;;;4936299;29;20463;-69
2022/09/15 03:09:48;;;;;;;0.90;0.70;;;18.90;88.60;;;;;;4936174;29;20490;-69
2022/09/15 03:12:15;;;;;;;0.70;0.60;;;19.00;88.50;;;;;;4936170;29;20492;-69
2022/09/15 03:14:42;;;;;;;1.63;0.60;;;18.90;88.10;;;;;;4937523;29;20510;-70
2022/09/15 03:17:08;;;;;;;0.70;0.57;;;18.90;88.20;;;;;;4936136;29;20472;-69
2022/09/15 03:19:37;;;;;;;0.70;0.60;;;18.80;88.40;;;;;;4936131;29;20508;-69
2022/09/15 03:22:03;;;;;;;0.97;0.60;;;18.70;88.60;;;;;;4935729;29;20821;-69
2022/09/15 03:24:30;;;;;;;0.90;0.60;;;18.80;88.60;;;;;;4936135;29;20454;-69
2022/09/15 03:26:57;;;;;;;1.07;0.90;;;18.60;89.10;;;;;;4936099;29;20452;-69
2022/09/15 03:29:23;;;;;;;0.80;0.67;;;18.60;89.40;;;;;;4935981;29;20488;-69
2022/09/15 03:31:50;;;;;;;0.70;0.60;;;18.50;89.70;;;;;;4936010;29;20472;-70
2022/09/15 03:34:17;;;;;;;0.90;0.50;;;18.50;89.70;;;;;;4936042;29;20448;-69
2022/09/15 03:36:45;;;;;;;0.90;0.60;;;18.60;89.50;;;;;;4936019;29;20448;-70
2022/09/15 03:39:12;;;;;;;0.73;0.60;;;18.70;89.20;;;;;;4936008;29;20444;-69
2022/09/15 03:41:39;;;;;;;0.97;0.70;;;18.70;89.10;;;;;;4936410;29;20472;-69
2022/09/15 03:44:05;;;;;;;0.80;0.63;;;18.70;88.80;;;;;;4935626;29;21007;-70
2022/09/15 03:46:32;;;;;;;0.80;0.60;;;18.80;88.60;;;;;;4935891;29;20452;-69
2022/09/15 03:48:58;;;;;;;1.30;0.60;;;18.90;88.10;;;;;;4935845;29;20899;-69
2022/09/15 03:51:26;;;;;;;0.70;0.60;;;18.90;87.90;;;;;;4935818;29;20508;-70
2022/09/15 03:53:55;;;;;;;0.80;0.60;;;18.70;88.40;;;;;;4935878;29;20539;-70
2022/09/15 03:56:24;;;;;;;0.70;0.70;;;18.70;88.80;;;;;;4935821;29;20511;-69
2022/09/15 03:58:51;;;;;;;0.80;0.70;;;18.80;88.40;;;;;;4935471;29;20885;-69
2022/09/15 04:01:18;;;;;;;1.10;0.60;;;18.70;88.70;;;;;;4935601;29;20484;-70
2022/09/15 04:03:45;;;;;;;0.70;0.50;;;18.60;88.90;;;;;;4935440;29;20487;-69
2022/09/15 04:06:12;;;;;;;0.80;0.70;;;18.50;89.00;;;;;;4935442;29;21003;-69
2022/09/15 04:08:38;;;;;;;0.70;0.53;;;18.40;89.70;;;;;;4935676;29;20543;-69
2022/09/15 04:11:08;;;;;;;0.70;0.50;;;18.30;89.90;;;;;;4937875;29;20519;-69
2022/09/15 04:13:35;;;;;;;0.80;0.70;;;18.20;90.20;;;;;;4939551;29;20444;-69
2022/09/15 04:16:03;;;;;;;0.80;0.60;;;18.30;90.60;;;;;;4939232;29;20474;-69
2022/09/15 04:18:32;;;;;;;0.70;0.70;;;18.20;90.50;;;;;;4939263;29;20443;-69
2022/09/15 04:20:59;;;;;;;0.70;0.57;;;18.30;90.20;;;;;;4939039;29;20476;-69
2022/09/15 04:23:26;;;;;;;0.70;0.70;;;18.20;90.30;;;;;;4938992;29;20539;-70
2022/09/15 04:25:56;;;;;;;0.70;0.60;;;18.30;90.00;;;;;;4939429;29;20456;-69
2022/09/15 04:28:25;;;;;;;0.70;0.50;;;18.30;89.60;;;;;;4938803;29;20534;-69
2022/09/15 04:30:51;;;;;;;0.70;0.60;;;18.30;89.60;;;;;;4938848;29;20472;-69
2022/09/15 04:33:18;;;;;;;0.70;0.70;;;18.40;89.10;;;;;;4938815;29;20452;-69
2022/09/15 04:35:45;;;;;;;1.30;0.60;;;18.20;89.40;;;;;;4938796;29;20448;-69
2022/09/15 04:38:12;;;;;;;0.73;0.70;;;18.10;90.00;;;;;;4938368;29;20878;-69
2022/09/15 04:40:38;;;;;;;0.70;0.60;;;18.20;89.90;;;;;;4938798;29;20487;-69
2022/09/15 04:43:05;;;;;;;0.70;0.53;;;18.20;89.60;;;;;;4938614;29;20452;-70
2022/09/15 04:45:33;;;;;;;1.20;0.60;;;18.30;89.30;;;;;;4938615;29;20506;-69
2022/09/15 04:48:00;;;;;;;0.70;0.60;;;18.30;88.90;;;;;;4938305;29;20846;-69
2022/09/15 04:50:26;;;;;;;0.70;0.60;;;18.40;88.70;;;;;;4938657;29;20488;-69
2022/09/15 04:52:53;;;;;;;0.70;0.60;;;18.40;88.40;;;;;;4938365;29;20535;-69
2022/09/15 04:55:20;;;;;;;0.70;0.60;;;18.30;88.50;;;;;;4938158;29;20832;-69
2022/09/15 04:57:46;;;;;;;0.80;0.60;;;18.20;88.90;;;;;;4938362;29;20448;-69
2022/09/15 05:00:14;;;;;;;0.70;0.60;;;18.30;88.70;;;;;;4938399;29;20444;-69
2022/09/15 05:02:43;;;;;;;0.70;0.67;;;18.20;88.80;;;;;;4938197;29;20487;-69
2022/09/15 05:05:10;;;;;;;0.70;0.60;;;18.00;89.20;;;;;;4938044;29;20833;-69
2022/09/15 05:07:36;;;;;;;0.70;0.50;;;18.00;89.50;;;;;;4938316;29;20455;-69
2022/09/15 05:10:03;;;;;;;0.70;0.60;;;18.00;89.40;;;;;;4938186;29;20484;-69
2022/09/15 05:12:30;;;;;;;0.70;0.60;;;17.90;89.70;;;;;;4938132;29;20472;-71
2022/09/15 05:14:57;;;;;;;1.17;0.63;;;18.00;90.20;;;;;;4938108;29;20453;-70
2022/09/15 05:17:23;;;;;;;0.70;0.50;;;18.00;89.70;;;;;;4938091;29;20455;-69
2022/09/15 05:19:51;;;;;;;0.70;0.50;;;18.00;89.60;;;;;;4937756;29;20986;-69
2022/09/15 05:22:19;;;;;;;0.70;0.60;;;18.10;89.30;;;;;;4937383;29;20515;-70
2022/09/15 05:24:46;;;;;;;0.70;0.60;;;18.20;88.90;;;;;;4937965;29;20463;-69
2022/09/15 05:27:12;;;;;;;0.70;0.53;;;18.20;88.80;;;;;;4937907;29;20460;-69
2022/09/15 05:29:39;;;;;;;0.70;0.57;;;18.10;89.50;;;;;;4937860;29;20483;-69
2022/09/15 05:32:06;;;;;;;0.70;0.50;;;18.10;89.40;;;;;;4937856;29;20821;-70
2022/09/15 05:34:32;;;;;;;0.70;0.50;;;18.10;89.70;;;;;;4937547;29;21015;-70
2022/09/15 05:37:00;;;;;;;0.70;0.50;;;18.20;89.60;;;;;;4937744;29;20455;-70
2022/09/15 05:39:27;;;;;;;0.80;0.60;;;18.10;89.40;;;;;;4937663;29;20487;-70
2022/09/15 05:41:54;;;;;;;0.70;0.60;;;18.10;89.40;;;;;;4937889;29;20475;-70
2022/09/15 05:44:20;;;;;;;1.47;0.87;;;18.20;89.60;;;;;;4937604;29;20448;-70
2022/09/15 05:46:48;;;;;;;0.83;0.50;;;18.10;89.80;;;;;;4937553;29;20530;-70
2022/09/15 05:49:14;;;;;;;0.70;0.60;;;18.20;90.00;;;;;;4937476;29;20542;-70
2022/09/15 05:51:41;;;;;;;0.70;0.60;;;18.30;89.30;;;;;;4937331;29;20531;-70
2022/09/15 05:54:09;;;;;;;0.80;0.60;;;18.30;88.80;;;;;;4937430;29;20448;-70
2022/09/15 05:56:36;;;;;;;0.70;0.60;;;18.30;89.00;;;;;;4937278;29;20507;-70
2022/09/15 05:59:02;;;;;;;0.70;0.60;;;18.40;89.00;;;;;;4937276;29;20452;-70
2022/09/15 06:01:30;;;;;;;0.70;0.53;;;18.50;88.60;;;;;;4937066;29;20492;-71
2022/09/15 06:03:57;;;;;;;0.70;0.50;;;18.60;88.30;;;;;;4937220;29;20452;-70
2022/09/15 06:06:25;;;;;;;0.70;0.50;;;18.70;87.60;;;;;;4937200;29;20913;-70
2022/09/15 06:08:54;;;;;;;0.70;0.60;;;18.60;88.30;;;;;;4936810;29;20967;-71
2022/09/15 06:11:25;;;;;;;0.70;0.60;;;18.50;88.20;;;;;;4936693;29;20563;-69
2022/09/15 06:13:51;;;;;;;0.70;0.50;;;18.40;88.70;;;;;;4937027;29;20433;-71
2022/09/15 06:16:20;;;;;;;0.70;0.60;;;18.40;88.80;;;;;;4936964;29;20499;-71
2022/09/15 06:18:47;;;;;;;0.80;0.70;;;18.40;89.00;;;;;;4936973;29;20456;-70
2022/09/15 06:21:17;;;;;;;0.80;0.60;;;18.40;89.10;;;;;;4936774;29;20559;-71
2022/09/15 06:23:44;;;;;;;0.80;0.53;;;18.40;89.40;;;;;;4937201;29;20507;-72
2022/09/15 06:26:13;;;;;;;0.70;0.50;;;18.40;89.50;;;;;;4936841;29;20816;-71
2022/09/15 06:28:46;;;;;;;0.70;0.50;;;18.40;89.60;;;;;;4936555;29;20463;-71
2022/09/15 06:31:14;;;;;;;0.90;0.63;;;18.30;89.70;;;;;;4936673;29;20488;-71
2022/09/15 06:33:42;;;;;;;0.70;0.53;;;18.20;90.60;;;;;;4935649;29;20452;-71
2022/09/15 06:36:10;;;;;;;1.00;0.50;;;18.30;90.50;;;;;;4936624;29;20452;-70
2022/09/15 06:38:36;;;;;;;0.77;0.63;;;18.30;90.40;;;;;;4936715;29;20454;-70
2022/09/15 06:41:03;;;;;;;0.80;0.60;;;18.50;89.90;;;;;;4936638;29;20538;-70
2022/09/15 06:43:31;;;;;;;0.70;0.60;;;18.50;90.40;;;;;;4936521;29;20507;-71
2022/09/15 06:46:04;;;;;;;0.80;0.60;;;18.60;89.70;;;;;;4936504;29;20448;-70
2022/09/15 06:48:32;;;;;;;0.70;0.53;;;18.60;89.70;;;;;;4936571;29;20447;-68
2022/09/15 06:50:59;;;;;;;0.70;0.60;;;18.70;89.70;;;;;;4936004;29;20938;-70
2022/09/15 06:53:27;;;;;;;0.70;0.50;;;18.90;89.60;;;;;;4936407;29;20491;-70
2022/09/15 06:55:54;;;;;;;0.70;0.50;;;18.90;88.80;;;;;;4936394;29;20459;-71
2022/09/15 06:58:20;;;;;;;0.70;0.50;;;18.80;89.40;;;;;;4936345;29;20456;-70
2022/09/15 07:00:47;;;;;;;0.70;0.60;;;18.80;89.50;;;;;;4936548;29;20870;-71
2022/09/15 07:03:15;;;;;;;0.70;0.60;;;18.70;89.50;;;;;;4936654;29;20443;-70
2022/09/15 07:05:43;;;;;;;0.70;0.60;;;18.70;90.20;;;;;;4936623;29;20456;-71
2022/09/15 07:08:10;;;;;;;0.80;0.60;;;18.80;90.20;;;;;;4936319;29;20455;-72
2022/09/15 07:10:36;;;;;;;0.80;0.60;;;18.90;89.70;;;;;;4936307;29;20555;-71
2022/09/15 07:13:03;;;;;;;0.70;0.57;;;19.00;89.60;;;;;;4936032;29;20941;-71
2022/09/15 07:15:30;;;;;;;0.70;0.60;;;19.20;89.30;;;;;;4936196;29;21032;-72
2022/09/15 07:17:58;;;;;;;0.70;0.60;;;19.30;88.40;;;;;;4936557;29;20897;-71
2022/09/15 07:20:26;;;;;;;0.80;0.60;;;19.30;88.20;;;;;;4936292;29;20448;-72
2022/09/15 07:22:53;;;;;;;0.70;0.60;;;19.30;88.60;;;;;;4936189;29;20535;-71
2022/09/15 07:25:20;;;;;;;0.80;0.50;;;19.40;88.70;;;;;;4936423;29;20452;-71
2022/09/15 07:27:46;;;;;;;1.43;0.60;;;19.30;88.70;;;;;;4936164;29;20455;-71
2022/09/15 07:30:13;;;;;;;0.70;0.50;;;19.20;89.40;;;;;;4936124;29;20535;-71
2022/09/15 07:32:41;;;;;;;0.77;0.53;;;19.00;89.50;;;;;;4935805;29;20877;-71
2022/09/15 07:35:08;;;;;;;0.90;0.60;;;18.80;90.20;;;;;;4936191;29;20448;-71
2022/09/15 07:37:36;;;;;;;0.90;0.50;;;18.70;91.20;;;;;;4935759;29;20944;-71
2022/09/15 07:40:03;;;;;;;0.70;0.60;;;18.80;91.30;;;;;;4936059;29;20452;-70
2022/09/15 07:42:31;;;;;;;0.70;0.50;;;18.90;91.30;;;;;;4935882;29;20476;-71
2022/09/15 07:44:57;;;;;;;0.70;0.50;;;19.00;90.40;;;;;;4936515;29;20515;-70
2022/09/15 07:47:24;;;;;;;0.70;0.50;;;18.90;90.60;;;;;;4939959;29;20459;-70
2022/09/15 07:49:51;;;;;;;0.70;0.50;;;18.80;90.90;;;;;;4939462;29;20484;-71
2022/09/15 07:52:18;;;;;;;1.57;0.60;;;18.70;91.30;;;;;;4939975;29;20471;-71
2022/09/15 07:54:46;;;;;;;0.80;0.60;;;18.80;91.70;;;;;;4939738;29;20448;-71
2022/09/15 07:57:13;;;;;;;0.80;0.57;;;18.90;91.20;;;;;;4939737;29;20462;-70
2022/09/15 07:59:39;;;;;;;0.70;0.50;;;19.00;91.20;;;;;;4939623;29;20448;-71
2022/09/15 08:02:06;;;;;;;0.70;0.50;;;19.20;90.60;;;;;;4939487;29;20542;-70
2022/09/15 08:04:33;;;;;;;0.70;0.60;;;19.10;91.00;;;;;;4939663;29;20448;-70
2022/09/15 08:06:59;;;;;;;0.73;0.57;;;19.10;90.30;;;;;;4939479;29;20503;-70
2022/09/15 08:09:26;;;;;;;0.70;0.50;;;19.00;90.40;;;;;;4939455;29;20518;-70
2022/09/15 08:11:54;;;;;;;0.70;0.50;;;19.10;90.80;;;;;;4939571;29;20487;-70
2022/09/15 08:14:21;;;;;;;0.70;0.50;;;19.20;90.10;;;;;;4939320;29;20884;-70
2022/09/15 08:16:47;;;;;;;0.77;0.60;;;18.90;90.40;;;;;;4939311;29;20466;-72
2022/09/15 08:19:14;;;;;;;0.70;0.50;;;18.90;91.00;;;;;;4939426;29;20452;-70
2022/09/15 08:21:41;;;;;;;0.73;0.60;;;18.80;90.80;;;;;;4939383;29;20475;-71
2022/09/15 08:24:09;;;;;;;0.70;0.60;;;18.70;91.20;;;;;;4938859;29;20995;-70
2022/09/15 08:26:37;;;;;;;0.70;0.60;;;18.70;91.70;;;;;;4939195;29;20462;-71
2022/09/15 08:29:06;;;;;;;0.70;0.60;;;18.80;91.80;;;;;;4939289;29;20456;-70
2022/09/15 08:31:32;;;;;;;0.70;0.60;;;18.90;91.60;;;;;;4938968;29;20496;-70
2022/09/15 08:34:02;;;;;;;0.73;0.60;;;19.10;91.10;;;;;;4938884;29;20500;-70
2022/09/15 08:36:30;;;;;;;0.70;0.57;;;19.20;91.10;;;;;;4938788;29;20459;-70
2022/09/15 08:38:56;;;;;;;0.70;0.60;;;19.30;90.60;;;;;;4938820;29;20455;-70
2022/09/15 08:41:27;;;;;;;0.70;0.60;;;19.30;90.20;;;;;;4938764;29;20521;-71
2022/09/15 08:44:02;;;;;;;0.70;0.60;;;19.40;90.00;;;;;;4938541;29;20943;-70
2022/09/15 08:46:36;;;;;;;0.90;0.63;;;19.50;89.90;;;;;;4938758;29;20435;-71
2022/09/15 08:49:08;;;;;;;0.80;0.60;;;19.70;90.20;;;;;;4938390;29;20922;-70
2022/09/15 08:51:41;;;;;;;0.80;0.57;;;19.70;90.30;;;;;;4938464;29;20582;-70
2022/09/15 08:54:14;;;;;;;1.63;0.60;;;19.70;89.00;;;;;;4938551;29;20805;-70
2022/09/15 08:56:42;;;;;;;0.70;0.50;;;19.60;89.00;;;;;;4938102;29;20445;-70
2022/09/15 08:59:13;;;;;;;0.70;0.60;;;19.50;89.60;;;;;;4938510;29;20822;-70
2022/09/15 09:01:53;;;;;;;0.70;0.50;;;19.60;89.00;;;;;;4938337;29;20487;-71
2022/09/15 09:04:34;;;;;;;0.80;0.53;;;19.60;89.70;;;;;;4938346;29;20435;-70
2022/09/15 09:07:13;;;;;;;0.77;0.50;;;19.60;89.30;;;;;;4938349;29;20840;-70
2022/09/15 09:09:46;;;;;;;0.70;0.50;;;19.70;89.40;;;;;;4938309;29;20503;-70
2022/09/15 09:12:29;;;;;;;0.80;0.60;;;19.70;89.10;;;;;;4937930;29;20476;-70
2022/09/15 09:15:20;;;;;;;2.70;0.60;;;19.80;89.10;;;;;;4939105;29;20852;-70
2022/09/15 09:18:11;;;;;;;0.70;0.50;;;19.70;88.90;;;;;;4938168;29;20531;-71
2022/09/15 09:20:46;;;;;;;0.70;0.60;;;19.70;89.30;;;;;;4938023;29;20502;-70
2022/09/15 09:23:16;;;;;;;0.73;0.57;;;19.80;88.90;;;;;;4938025;29;20448;-70
2022/09/15 09:25:44;;;;;;;0.80;0.60;;;19.90;89.00;;;;;;4937885;29;20455;-70
2022/09/15 09:28:24;;;;;;;0.70;0.50;;;20.00;89.60;;;;;;4937596;29;21016;-70
2022/09/15 09:30:50;;;;;;;1.20;0.70;;;20.10;89.50;;;;;;4938057;29;20491;-70
2022/09/15 09:33:29;;;;;;;0.80;0.60;;;20.30;88.80;;;;;;4937570;29;20944;-71
2022/09/15 09:36:00;;;;;;;0.70;0.50;;;20.50;88.00;;;;;;4937802;29;20450;-71
2022/09/15 09:38:30;;;;;;;1.00;0.60;;;20.60;86.80;;;;;;4937809;29;20447;-70
2022/09/15 09:40:57;;;;;;;0.80;0.60;;;20.80;87.00;;;;;;4938834;29;20464;-69
2022/09/15 09:43:26;;;;;;;0.80;0.50;;;20.70;87.00;;;;;;4937646;29;20459;-70
2022/09/15 09:45:53;;;;;;;0.80;0.60;;;20.70;86.70;;;;;;4938336;29;20456;-70
2022/09/15 09:48:23;;;;;;;0.80;0.67;;;20.60;85.90;;;;;;4937590;29;20499;-69
2022/09/15 09:50:50;;;;;;;0.70;0.50;;;20.30;86.90;;;;;;4937384;29;20569;-70
2022/09/15 09:53:26;;;;;;;0.70;0.50;;;20.00;87.60;;;;;;4937437;29;20457;-70
2022/09/15 09:55:54;;;;;;;0.70;0.57;;;20.10;87.90;;;;;;4937438;29;20436;-70
2022/09/15 09:58:23;;;;;;;0.70;0.50;;;20.20;88.30;;;;;;4937343;29;20444;-68
2022/09/15 10:00:51;;;;;;;0.80;0.50;;;20.40;89.00;;;;;;4937255;29;20500;-70
2022/09/15 10:03:21;;;;;;;0.70;0.50;;;20.30;86.70;;;;;;4937387;29;20432;-70
2022/09/15 10:06:01;;;;;;;0.70;0.50;;;20.30;86.10;;;;;;4937159;29;20439;-70
2022/09/15 10:08:28;;;;;;;0.80;0.60;;;20.50;86.90;;;;;;4936705;29;20448;-70
2022/09/15 10:11:00;;;;;;;0.70;0.53;;;20.70;86.60;;;;;;4936972;29;20498;-70
2022/09/15 10:13:27;;;;;;;0.70;0.50;;;20.80;85.00;;;;;;4937189;29;20458;-71
2022/09/15 10:15:56;;;;;;;0.70;0.50;;;20.80;85.30;;;;;;4937012;29;20474;-71
2022/09/15 10:18:32;;;;;;;0.70;0.50;;;20.90;85.20;;;;;;4936713;29;21001;-70
2022/09/15 10:21:00;;;;;;;0.70;0.50;;;21.10;84.80;;;;;;4936929;29;20467;-70
2022/09/15 10:23:29;;;;;;;3.27;0.70;;;21.00;84.20;;;;;;4936899;29;20493;-71
2022/09/15 10:25:58;;;;;;;0.70;0.50;;;21.00;84.70;;;;;;4936900;29;20511;-70
2022/09/15 10:28:26;;;;;;;0.70;0.50;;;20.80;85.10;;;;;;4936522;29;20491;-71
2022/09/15 10:31:00;;;;;;;0.70;0.50;;;20.60;84.40;;;;;;4936764;29;20495;-72
2022/09/15 10:33:31;;;;;;;0.70;0.50;;;20.40;84.20;;;;;;4937040;29;20435;-71
2022/09/15 10:36:03;;;;;;;0.80;0.50;;;20.20;84.80;;;;;;4937093;29;20865;-71
2022/09/15 10:38:40;;;;;;;0.70;0.60;;;20.00;84.80;;;;;;4937238;29;20474;-70
2022/09/15 10:41:20;;;;;;;0.70;0.50;;;19.80;85.30;;;;;;4936637;29;20471;-70
2022/09/15 10:44:04;;;;;;;0.80;0.50;;;19.70;85.40;;;;;;4936696;29;20938;-71
2022/09/15 10:46:43;;;;;;;0.80;0.70;;;19.60;86.10;;;;;;4936937;29;20439;-71
2022/09/15 10:49:24;;;;;;;0.70;0.60;;;19.60;86.20;;;;;;4936806;29;20527;-71
2022/09/15 10:52:00;;;;;;;0.70;0.50;;;19.60;86.30;;;;;;4936677;29;20487;-72
2022/09/15 10:54:43;;;;;;;0.70;0.50;;;19.60;86.50;;;;;;4936714;29;20543;-73
2022/09/15 10:57:22;;;;;;;0.70;0.50;;;19.50;85.80;;;;;;4936660;29;20441;-72
2022/09/15 10:59:59;;;;;;;0.70;0.50;;;19.50;85.70;;;;;;4936627;29;20523;-71
2022/09/15 11:03:09;;;;;;;0.70;0.50;;;19.40;85.40;;;;;;4936046;29;20490;-71
2022/09/15 11:05:53;;;;;;;0.70;0.50;;;19.20;86.30;;;;;;4936427;29;20553;-71
2022/09/15 11:08:48;;;;;;;0.70;0.50;;;19.10;86.40;;;;;;4936642;29;20471;-71
2022/09/15 11:11:25;;;;;;;0.70;0.50;;;19.00;86.60;;;;;;4936448;29;20496;-71
2022/09/15 11:14:06;;;;;;;0.70;0.50;;;18.90;86.60;;;;;;4936557;29;20915;-72
2022/09/15 11:16:43;;;;;;;0.70;0.50;;;19.00;86.50;;;;;;4937730;29;20465;-71
2022/09/15 11:19:27;;;;;;;0.70;0.50;;;19.00;86.70;;;;;;4937188;29;20440;-72
2022/09/15 11:22:00;;;;;;;0.70;0.50;;;19.10;85.90;;;;;;4936348;29;20468;-72
2022/09/15 11:24:34;;;;;;;0.80;0.63;;;18.80;85.70;;;;;;4936343;29;20939;-72
2022/09/15 11:27:07;;;;;;;0.70;0.50;;;18.60;85.80;;;;;;4936592;29;20412;-71
2022/09/15 11:29:51;;;;;;;0.90;0.60;;;18.20;85.20;;;;;;4937049;29;20429;-72
2022/09/15 11:32:24;;;;;;;0.80;0.70;;;17.90;85.30;;;;;;4936879;29;20502;-71
2022/09/15 11:34:57;;;;;;;0.90;0.60;;;17.80;85.30;;;;;;4936929;29;20455;-72
2022/09/15 11:37:32;;;;;;;0.80;0.70;;;17.70;86.10;;;;;;4936317;29;20448;-71
2022/09/15 11:40:04;;;;;;;0.70;0.60;;;17.60;86.00;;;;;;4935957;29;20436;-71
2022/09/15 11:42:37;;;;;;;0.70;0.60;;;17.50;86.30;;;;;;4936005;29;20479;-71
2022/09/15 11:45:13;;;;;;;0.70;0.53;;;17.50;86.80;;;;;;4936153;29;20429;-71
2022/09/15 11:47:43;;;;;;;0.80;0.63;;;17.40;87.20;;;;;;4936475;29;20447;-73
2022/09/15 11:50:16;;;;;;;0.70;0.60;;;17.50;87.30;;;;;;4936052;29;20511;-72
2022/09/15 11:52:51;;;;;;;0.70;0.60;;;17.60;87.60;;;;;;4935998;29;20488;-71
2022/09/15 11:55:27;;;;;;;0.70;0.57;;;17.70;87.50;;;;;;4935927;29;20849;-70
2022/09/15 11:58:01;;;;;;;0.73;0.60;;;17.80;87.20;;;;;;4935608;29;20880;-70
2022/09/15 12:00:29;;;;;;;0.70;0.60;;;17.80;87.20;;;;;;4935795;29;20470;-70
2022/09/15 12:03:10;;;;;;;0.70;0.60;;;17.80;86.50;;;;;;4935548;29;20475;-70
2022/09/15 12:05:41;;;;;;;0.70;0.50;;;17.80;86.80;;;;;;4935842;29;20436;-70
2022/09/15 12:08:19;;;;;;;0.70;0.60;;;17.80;86.50;;;;;;4935853;29;20432;-69
2022/09/15 12:10:49;;;;;;;0.80;0.60;;;17.90;87.00;;;;;;4935553;29;20546;-70
2022/09/15 12:13:18;;;;;;;1.00;0.70;;;18.00;86.60;;;;;;4935787;29;20507;-70
2022/09/15 12:15:46;;;;;;;0.80;0.60;;;18.10;86.80;;;;;;4936018;29;20519;-70
2022/09/15 12:18:21;;;;;;;0.70;0.60;;;18.10;86.00;;;;;;4936289;29;20908;-69
2022/09/15 12:20:53;;;;;;;0.70;0.60;;;18.00;86.00;;;;;;4935542;29;20983;-70
2022/09/15 12:23:29;;;;;;;0.70;0.67;;;17.90;85.30;;;;;;4936113;29;20436;-70
2022/09/15 12:26:07;;;;;;;1.03;0.60;;;17.90;86.00;;;;;;4935787;29;20443;-71
2022/09/15 12:28:40;;;;;;;0.70;0.60;;;17.90;86.20;;;;;;4935745;29;20491;-70
2022/09/15 12:31:24;;;;;;;0.70;0.60;;;17.90;85.00;;;;;;4935606;29;20551;-69
2022/09/15 12:33:55;;;;;;;0.80;0.67;;;17.90;84.80;;;;;;4938815;29;20479;-71
2022/09/15 12:36:52;;;;;;;0.70;0.60;;;17.90;85.60;;;;;;4939171;29;20456;-71
2022/09/15 12:39:39;;;;;;;0.70;0.60;;;18.00;85.70;;;;;;4880160;29;20435;-71
2022/09/15 12:42:19;;;;;;;0.70;0.60;;;18.20;84.90;;;;;;4934060;29;20480;-70
2022/09/15 12:44:50;;;;;;;0.80;0.70;;;18.40;84.10;;;;;;4938949;29;20448;-70
2022/09/15 12:47:25;;;;;;;0.80;0.80;;;18.30;82.80;;;;;;4938982;29;20436;-70
2022/09/15 12:49:54;;;;;;;0.80;0.60;;;18.40;82.20;;;;;;4938827;29;20463;-70
2022/09/15 12:52:22;;;;;;;0.70;0.60;;;18.40;81.80;;;;;;4938710;29;20491;-71
2022/09/15 12:54:55;;;;;;;0.70;0.60;;;18.40;82.50;;;;;;4938548;29;20846;-71
2022/09/15 12:57:27;;;;;;;0.70;0.60;;;18.40;82.30;;;;;;4938783;29;20464;-71
2022/09/15 13:00:33;;;;;;;0.70;0.60;;;18.50;82.90;;;;;;4938441;29;20908;-71
2022/09/15 13:03:01;;;;;;;0.90;0.67;;;18.60;82.40;;;;;;4933965;29;20456;-71
2022/09/15 13:06:06;;;;;;;0.77;0.67;;;18.80;82.90;;;;;;4938503;29;20538;-71
2022/09/15 13:08:54;;;;;;;0.80;0.80;;;18.90;81.60;;;;;;4928925;29;20859;-70
2022/09/15 13:11:33;;;;;;;0.70;0.63;;;19.10;80.80;;;;;;4938579;29;20491;-71
2022/09/15 13:14:15;;;;;;;0.70;0.60;;;19.30;79.90;;;;;;4938649;29;20451;-70
2022/09/15 13:16:49;;;;;;;0.80;0.60;;;19.70;80.80;;;;;;4938600;29;20436;-70
2022/09/15 13:19:20;;;;;;;0.80;0.70;;;20.00;77.50;;;;;;4938693;29;20436;-70
2022/09/15 13:21:55;;;;;;;0.70;0.70;;;19.90;75.70;;;;;;4938171;29;20988;-70
2022/09/15 13:24:36;;;;;;;0.70;0.60;;;19.90;75.60;;;;;;4938158;29;20916;-71
2022/09/15 13:27:05;;;;;;;0.80;0.60;;;19.90;75.50;;;;;;4938412;29;20447;-70
2022/09/15 13:29:36;;;;;;;0.80;0.70;;;19.80;76.70;;;;;;4938049;29;20448;-70
2022/09/15 13:32:15;;;;;;;0.70;0.60;;;19.70;77.20;;;;;;4937964;29;20491;-70
2022/09/15 13:35:02;;;;;;;0.70;0.60;;;19.50;77.10;;;;;;4938503;29;20959;-70
2022/09/15 13:37:56;;;;;;;0.80;0.70;;;19.70;76.70;;;;;;4937810;29;20448;-70
2022/09/15 13:40:41;;;;;;;0.70;0.70;;;19.90;76.80;;;;;;4937680;29;20436;-70
2022/09/15 13:43:34;;;;;;;0.83;0.70;;;19.90;75.00;;;;;;4937232;29;20529;-70
2022/09/15 13:46:14;;;;;;;0.70;0.60;;;19.80;74.70;;;;;;4937623;29;20441;-70
2022/09/15 13:48:55;;;;;;;0.70;0.60;;;19.80;76.20;;;;;;4937630;29;20436;-71
2022/09/15 13:51:26;;;;;;;1.17;0.70;;;19.90;75.30;;;;;;4937368;29;20472;-71
2022/09/15 13:53:57;;;;;;;0.80;0.70;;;19.90;75.00;;;;;;4937523;29;20440;-71
2022/09/15 13:56:27;;;;;;;0.83;0.80;;;20.00;74.70;;;;;;4937481;29;20445;-71
2022/09/15 13:59:01;;;;;;;0.70;0.60;;;20.30;75.80;;;;;;4937114;29;20519;-71
2022/09/15 14:01:30;;;;;;;0.90;0.60;;;20.60;72.90;;;;;;4937175;29;20570;-70
2022/09/15 14:03:59;;;;;;;0.70;0.70;;;20.90;72.70;;;;;;4937301;29;20460;-70
2022/09/15 14:06:33;;;;;;;0.70;0.60;;;21.20;72.40;;;;;;4937193;29;20867;-70
2022/09/15 14:09:04;;;;;;;0.83;0.70;;;21.60;72.60;;;;;;4937953;29;20440;-71
2022/09/15 14:11:33;;;;;;;0.80;0.70;;;22.20;69.00;;;;;;4937627;29;20480;-71
2022/09/15 14:14:01;;;;;;;0.80;0.67;;;22.20;69.10;;;;;;4936957;29;20860;-71
2022/09/15 14:16:32;;;;;;;0.70;0.70;;;22.10;69.60;;;;;;4936986;29;20960;-71
2022/09/15 14:19:00;;;;;;;0.70;0.63;;;21.90;70.30;;;;;;4937074;29;20537;-70
2022/09/15 14:21:30;;;;;;;0.70;0.60;;;21.70;70.90;;;;;;4936992;29;20480;-71
2022/09/15 14:23:59;;;;;;;0.70;0.60;;;21.30;71.40;;;;;;4936922;29;20440;-71
2022/09/15 14:26:29;;;;;;;0.70;0.70;;;21.20;72.40;;;;;;4936877;29;20452;-71
2022/09/15 14:28:57;;;;;;;0.70;0.60;;;21.00;71.30;;;;;;4937702;29;20440;-70
2022/09/15 14:31:32;;;;;;;0.80;0.70;;;20.90;71.80;;;;;;4936985;29;20472;-70
2022/09/15 14:33:59;;;;;;;0.77;0.60;;;20.70;73.50;;;;;;4936841;29;20449;-71
2022/09/15 14:36:28;;;;;;;0.70;0.60;;;20.70;73.60;;;;;;4936386;29;20991;-70
2022/09/15 14:39:18;;;;;;;1.00;0.70;;;20.90;74.00;;;;;;4936698;29;20456;-70
2022/09/15 14:41:45;;;;;;;0.70;0.60;;;21.90;71.60;;;;;;4936599;29;20522;-70
2022/09/15 14:44:27;;;;;;;0.70;0.60;;;23.80;67.80;;;;;;4936600;29;20534;-70
2022/09/15 14:46:55;;;;;;;0.80;0.60;;;25.30;63.10;;;;;;4936638;29;20519;-71
2022/09/15 14:49:22;;;;;;;0.80;0.60;;;26.50;59.70;;;;;;4936877;29;20512;-71
2022/09/15 14:51:51;;;;;;;0.70;0.63;;;26.00;58.50;;;;;;4936422;29;20496;-71
2022/09/15 14:54:23;;;;;;;1.53;0.60;;;25.00;59.80;;;;;;4936173;29;20456;-70
2022/09/15 14:56:50;;;;;;;0.80;0.70;;;24.80;61.60;;;;;;4936397;29;20495;-71
2022/09/15 14:59:21;;;;;;;1.40;1.27;;;25.30;62.20;;;;;;4936415;29;20455;-71
2022/09/15 15:01:55;;;;;;;0.80;0.70;;;26.10;59.50;;;;;;4936347;29;20543;-71
2022/09/15 15:04:27;;;;;;;0.80;0.60;;;27.10;57.70;;;;;;4936166;29;20467;-71
2022/09/15 15:07:01;;;;;;;0.70;0.60;;;28.10;54.20;;;;;;4936499;29;20436;-71
2022/09/15 15:09:32;;;;;;;0.80;0.70;;;28.40;53.10;;;;;;4936377;29;20523;-71
2022/09/15 15:12:01;;;;;;;1.10;0.70;;;29.20;52.20;;;;;;4936145;29;20491;-71
2022/09/15 15:14:28;;;;;;;0.70;0.57;;;30.20;51.10;;;;;;4937466;29;20456;-71
2022/09/15 15:16:59;;;;;;;0.80;0.60;;;30.90;49.70;;;;;;4936235;29;20511;-71
2022/09/15 15:19:37;;;;;;;0.70;0.60;;;30.00;50.00;;;;;;4936193;29;20499;-71
2022/09/15 15:22:22;;;;;;;0.80;0.70;;;28.90;51.80;;;;;;4936176;29;20468;-70
2022/09/15 15:24:52;;;;;;;0.80;0.70;;;27.80;54.50;;;;;;4936190;29;20503;-70
2022/09/15 15:27:41;;;;;;;0.70;0.70;;;27.00;56.10;;;;;;4936130;29;20651;-70
2022/09/15 15:30:28;;;;;;;0.70;0.60;;;25.90;57.10;;;;;;4931977;29;20507;-70
2022/09/15 15:32:56;;;;;;;0.70;0.60;;;24.90;59.00;;;;;;4935748;29;20995;-71
2022/09/15 15:35:24;;;;;;;0.93;0.80;;;24.30;60.80;;;;;;4936000;29;20452;-70
2022/09/15 15:38:01;;;;;;;0.80;0.70;;;23.70;61.80;;;;;;4936025;29;20456;-71
2022/09/15 15:40:28;;;;;;;0.70;0.60;;;23.20;63.00;;;;;;4935955;29;20523;-70
2022/09/15 15:42:57;;;;;;;0.70;0.60;;;22.90;64.20;;;;;;4935983;29;20445;-70
2022/09/15 15:45:27;;;;;;;0.80;0.60;;;22.80;64.90;;;;;;4936007;29;20456;-71
2022/09/15 15:47:54;;;;;;;0.70;0.60;;;22.50;65.50;;;;;;4935940;29;20452;-70
2022/09/15 15:50:23;;;;;;;0.80;0.70;;;22.10;64.80;;;;;;4935910;29;20503;-70
2022/09/15 15:52:52;;;;;;;1.00;0.60;;;21.80;66.10;;;;;;4935840;29;20511;-70
2022/09/15 15:55:20;;;;;;;0.90;0.70;;;21.50;67.00;;;;;;4935608;29;20448;-70
2022/09/15 15:57:49;;;;;;;0.80;0.60;;;21.40;67.60;;;;;;4935817;29;20456;-70
2022/09/15 16:00:20;;;;;;;0.70;0.63;;;21.20;67.40;;;;;;4935779;29;20472;-71
2022/09/15 16:02:47;;;;;;;0.80;0.60;;;21.10;67.30;;;;;;4935730;28;20542;-70
2022/09/15 16:05:14;;;;;;;0.80;0.70;;;21.10;67.70;;;;;;4935511;29;20854;-70
2022/09/15 16:07:42;;;;;;;0.80;0.70;;;21.00;67.20;;;;;;4938952;29;20452;-70
2022/09/15 16:10:15;;;;;;;0.80;0.60;;;20.80;68.20;;;;;;4939410;29;20452;-69